createdAt,value
2019-05-15T00:00:18.296Z,102576.27
2019-05-15T00:03:24.960Z,102569.47
2019-05-15T00:06:31.317Z,102563.06
2019-05-15T00:09:41.794Z,102561.36
2019-05-15T00:12:48.664Z,102558.34
2019-05-15T00:16:05.505Z,102552.45
2019-05-15T00:19:13.106Z,102560.89
2019-05-15T00:22:20.491Z,102554.06
2019-05-15T00:25:28.350Z,102551.09
2019-05-15T00:28:35.691Z,102551.93
2019-05-15T00:31:52.413Z,102550.66
2019-05-15T00:35:09.633Z,102545.52
2019-05-15T00:38:18.642Z,102542.96
2019-05-15T00:41:27.879Z,102542.08
2019-05-15T00:44:35.160Z,102536.55
2019-05-15T00:47:42.761Z,102537.39
2019-05-15T00:50:59.489Z,102534.84
2019-05-15T00:54:08.277Z,102527.58
2019-05-15T00:57:14.937Z,102527.56
2019-05-15T01:00:40.020Z,102525.84
2019-05-15T01:03:49.344Z,102527.52
2019-05-15T01:07:08.158Z,102521.58
2019-05-15T01:10:24.267Z,102517.28
2019-05-15T01:13:40.915Z,102523.64
2019-05-15T01:16:49.033Z,102525.27
2019-05-15T01:19:58.712Z,102519.73
2019-05-15T01:23:05.337Z,102521.85
2019-05-15T01:26:12.815Z,102523.08
2019-05-15T01:29:44.798Z,102523.07
2019-05-15T01:32:48.651Z,102525.59
2019-05-15T01:36:05.346Z,102524.73
2019-05-15T01:39:21.928Z,102519.60
2019-05-15T01:42:39.019Z,102522.91
2019-05-15T01:45:55.744Z,102522.91
2019-05-15T01:49:12.290Z,102524.58
2019-05-15T01:52:35.048Z,102519.84
2019-05-15T01:55:51.724Z,102520.69
2019-05-15T01:59:14.344Z,102512.19
2019-05-15T02:02:21.634Z,102515.49
2019-05-15T02:05:39.102Z,102513.39
2019-05-15T02:08:46.714Z,102512.51
2019-05-15T02:11:54.117Z,102519.64
2019-05-15T02:15:11.046Z,102508.64
2019-05-15T02:18:19.227Z,102512.39
2019-05-15T02:21:28.806Z,102517.06
2019-05-15T02:24:36.118Z,102512.33
2019-05-15T02:27:55.563Z,102512.32
2019-05-15T02:31:13.429Z,102511.45
2019-05-15T02:34:19.598Z,102515.27
2019-05-15T02:37:29.412Z,102508.39
2019-05-15T02:40:36.249Z,102509.25
2019-05-15T02:43:43.933Z,102507.05
2019-05-15T02:47:00.533Z,102501.63
2019-05-15T02:50:20.437Z,102499.83
2019-05-15T02:53:29.592Z,102500.56
2019-05-15T02:56:54.371Z,102495.14
2019-05-15T03:00:11.420Z,102496.34
2019-05-15T03:03:20.560Z,102495.86
2019-05-15T03:06:29.785Z,102497.91
2019-05-15T03:09:39.870Z,102491.12
2019-05-15T03:12:49.323Z,102489.41
2019-05-15T03:16:11.054Z,102484.35
2019-05-15T03:19:19.466Z,102486.02
2019-05-15T03:22:42.211Z,102482.20
2019-05-15T03:26:04.326Z,102491.93
2019-05-15T03:29:11.213Z,102492.27
2019-05-15T03:32:32.779Z,102490.52
2019-05-15T03:35:32.178Z,102494.27
2019-05-15T03:38:44.956Z,102490.94
2019-05-15T03:42:01.950Z,102489.69
2019-05-15T03:45:19.206Z,102486.72
2019-05-15T03:48:28.791Z,102485.36
2019-05-15T03:51:39.907Z,102487.02
2019-05-15T03:54:44.906Z,102483.61
2019-05-15T03:58:01.861Z,102482.80
2019-05-15T04:01:36.766Z,102474.36
2019-05-15T04:04:42.981Z,102474.73
2019-05-15T04:08:00.070Z,102475.53
2019-05-15T04:11:09.110Z,102481.44
2019-05-15T04:14:19.374Z,102485.64
2019-05-15T04:17:29.534Z,102483.94
2019-05-15T04:20:35.530Z,102483.52
2019-05-15T04:23:42.472Z,102484.33
2019-05-15T04:27:10.652Z,102479.31
2019-05-15T04:30:19.062Z,102479.70
2019-05-15T04:33:28.988Z,102480.98
2019-05-15T04:36:33.580Z,102485.23
2019-05-15T04:39:50.960Z,102478.54
2019-05-15T04:42:59.313Z,102483.56
2019-05-15T04:46:19.407Z,102478.16
2019-05-15T04:49:34.517Z,102479.09
2019-05-15T04:52:43.389Z,102484.20
2019-05-15T04:55:51.482Z,102480.42
2019-05-15T04:59:00.095Z,102477.53
2019-05-15T05:02:24.976Z,102473.38
2019-05-15T05:05:34.378Z,102470.09
2019-05-15T05:08:50.852Z,102469.31
2019-05-15T05:12:19.112Z,102466.41
2019-05-15T05:15:34.494Z,102469.95
2019-05-15T05:18:51.163Z,102463.64
2019-05-15T05:22:10.826Z,102469.65
2019-05-15T05:25:18.265Z,102469.25
2019-05-15T05:28:34.902Z,102470.24
2019-05-15T05:31:54.497Z,102464.41
2019-05-15T05:35:20.493Z,102470.98
2019-05-15T05:38:28.212Z,102472.77
2019-05-15T05:41:35.863Z,102470.31
2019-05-15T05:44:43.139Z,102465.28
2019-05-15T05:47:50.484Z,102468.29
2019-05-15T05:50:58.250Z,102470.02
2019-05-15T05:54:14.670Z,102469.23
2019-05-15T05:57:31.456Z,102466.28
2019-05-15T06:00:51.258Z,102466.30
2019-05-15T06:04:18.420Z,102467.58
2019-05-15T06:07:24.286Z,102473.13
2019-05-15T06:10:31.724Z,102465.48
2019-05-15T06:13:39.038Z,102462.97
2019-05-15T06:16:48.231Z,102462.09
2019-05-15T06:19:55.522Z,102462.08
2019-05-15T06:23:01.106Z,102459.52
2019-05-15T06:26:19.673Z,102460.29
2019-05-15T06:29:37.839Z,102466.59
2019-05-15T06:33:09.339Z,102468.61
2019-05-15T06:36:20.807Z,102472.30
2019-05-15T06:39:39.150Z,102466.58
2019-05-15T06:43:01.841Z,102462.17
2019-05-15T06:46:18.886Z,102468.34
2019-05-15T06:49:28.485Z,102469.84
2019-05-15T06:52:37.824Z,102470.52
2019-05-15T06:55:44.550Z,102467.72
2019-05-15T06:58:52.207Z,102471.31
2019-05-15T07:02:18.886Z,102463.29
2019-05-15T07:05:38.556Z,102464.65
2019-05-15T07:08:45.997Z,102463.95
2019-05-15T07:11:53.293Z,102464.02
2019-05-15T07:15:00.775Z,102464.03
2019-05-15T07:18:19.950Z,102468.35
2019-05-15T07:21:38.731Z,102460.95
2019-05-15T07:24:47.674Z,102466.05
2019-05-15T07:27:54.653Z,102467.36
2019-05-15T07:31:02.073Z,102463.13
2019-05-15T07:34:09.346Z,102467.48
2019-05-15T07:37:19.048Z,102466.77
2019-05-15T07:40:28.806Z,102459.53
2019-05-15T07:43:35.226Z,102452.63
2019-05-15T07:46:42.612Z,102448.59
2019-05-15T07:49:50.153Z,102453.26
2019-05-15T07:52:59.075Z,102447.34
2019-05-15T07:56:18.006Z,102452.06
2019-05-15T07:59:23.298Z,102451.47
2019-05-15T08:02:40.084Z,102444.89
2019-05-15T08:06:05.547Z,102449.32
2019-05-15T08:09:11.203Z,102449.77
2019-05-15T08:12:28.366Z,102446.52
2019-05-15T08:15:37.975Z,102443.17
2019-05-15T08:18:45.088Z,102434.95
2019-05-15T08:21:52.483Z,102437.59
2019-05-15T08:25:00.020Z,102429.01
2019-05-15T08:28:25.126Z,102424.66
2019-05-15T08:31:31.080Z,102421.29
2019-05-15T08:34:48.039Z,102412.25
2019-05-15T08:37:55.503Z,102416.19
2019-05-15T08:41:02.748Z,102422.19
2019-05-15T08:44:10.061Z,102415.53
2019-05-15T08:47:19.152Z,102410.50
2019-05-15T08:50:28.733Z,102414.22
2019-05-15T08:53:53.938Z,102408.03
2019-05-15T08:57:01.205Z,102409.63
2019-05-15T09:00:20.094Z,102411.89
2019-05-15T09:03:38.056Z,102398.30
2019-05-15T09:06:45.629Z,102399.70
2019-05-15T09:10:09.173Z,102392.61
2019-05-15T09:13:15.042Z,102400.31
2019-05-15T09:16:22.393Z,102383.83
2019-05-15T09:19:29.765Z,102380.75
2019-05-15T09:22:48.996Z,102381.47
2019-05-15T09:26:05.236Z,102365.62
2019-05-15T09:29:11.446Z,102366.49
2019-05-15T09:32:19.297Z,102369.09
2019-05-15T09:35:25.180Z,102368.56
2019-05-15T09:38:44.685Z,102361.80
2019-05-15T09:42:04.021Z,102365.21
2019-05-15T09:45:11.545Z,102357.73
2019-05-15T09:48:19.920Z,102361.80
2019-05-15T09:51:39.172Z,102354.02
2019-05-15T09:54:56.104Z,102350.94
2019-05-15T09:58:14.140Z,102343.16
2019-05-15T10:01:21.482Z,102337.67
2019-05-15T10:04:49.593Z,102341.98
2019-05-15T10:07:56.483Z,102318.48
2019-05-15T10:11:03.915Z,102322.92
2019-05-15T10:14:11.371Z,102325.40
2019-05-15T10:17:18.973Z,102315.67
2019-05-15T10:20:28.960Z,102324.97
2019-05-15T10:23:49.395Z,102318.69
2019-05-15T10:27:05.316Z,102307.70
2019-05-15T10:30:29.299Z,102311.32
2019-05-15T10:33:46.205Z,102312.22
2019-05-15T10:37:05.291Z,102303.17
2019-05-15T10:40:22.183Z,102294.53
2019-05-15T10:43:28.855Z,102284.61
2019-05-15T10:46:38.247Z,102294.20
2019-05-15T10:49:45.333Z,102280.69
2019-05-15T10:52:52.618Z,102272.19
2019-05-15T10:56:09.276Z,102266.64
2019-05-15T10:59:18.113Z,102274.58
2019-05-15T11:02:24.924Z,102268.55
2019-05-15T11:05:43.886Z,102262.61
2019-05-15T11:08:40.993Z,102263.69
2019-05-15T11:11:51.465Z,102261.23
2019-05-15T11:15:11.361Z,102260.98
2019-05-15T11:18:30.838Z,102249.41
2019-05-15T11:21:48.572Z,102247.19
2019-05-15T11:25:05.009Z,102248.27
2019-05-15T11:28:24.444Z,102245.82
2019-05-15T11:31:41.197Z,102234.81
2019-05-15T11:34:58.310Z,102234.69
2019-05-15T11:38:09.657Z,102235.80
2019-05-15T11:41:18.419Z,102233.42
2019-05-15T11:44:22.924Z,102231.91
2019-05-15T11:47:40.304Z,102225.94
2019-05-15T11:50:46.925Z,102226.97
2019-05-15T11:54:03.343Z,102228.14
2019-05-15T11:57:40.990Z,102221.77
2019-05-15T12:00:49.135Z,102221.00
2019-05-15T12:03:54.184Z,102224.20
2019-05-15T12:07:10.833Z,102220.70
2019-05-15T12:10:28.912Z,102220.92
2019-05-15T12:13:38.144Z,102217.61
2019-05-15T12:17:09.615Z,102216.36
2019-05-15T12:20:13.265Z,102221.23
2019-05-15T12:23:29.889Z,102209.65
2019-05-15T12:26:48.880Z,102216.13
2019-05-15T12:30:05.525Z,102206.34
2019-05-15T12:33:11.304Z,102200.32
2019-05-15T12:36:46.068Z,102199.55
2019-05-15T12:39:30.390Z,102202.07
2019-05-15T13:02:13.461Z,102192.86
2019-05-15T13:05:20.836Z,102194.77
2019-05-15T13:08:29.063Z,102201.96
2019-05-15T13:11:37.809Z,102201.28
2019-05-15T13:14:45.192Z,102190.70
2019-05-15T13:17:53.753Z,102191.84
2019-05-15T13:21:01.420Z,102183.84
2019-05-15T13:24:08.703Z,102197.45
2019-05-15T13:27:18.221Z,102193.69
2019-05-15T13:30:25.806Z,102185.91
2019-05-15T13:33:33.201Z,102179.97
2019-05-15T13:36:40.492Z,102172.03
2019-05-15T13:39:48.522Z,102180.20
2019-05-15T13:42:56.020Z,102194.25
2019-05-15T13:46:03.488Z,102184.92
2019-05-15T13:49:10.850Z,102183.03
2019-05-15T13:52:18.790Z,102177.16
2019-05-15T13:55:42.441Z,102178.69
2019-05-15T13:58:58.540Z,102164.81
2019-05-15T14:02:14.617Z,102180.67
2019-05-15T14:05:38.430Z,102199.28
2019-05-15T14:08:48.537Z,102175.10
2019-05-15T14:12:12.475Z,102169.30
2019-05-15T14:15:27.768Z,102166.94
2019-05-15T14:18:44.422Z,102165.94
2019-05-15T14:22:01.115Z,102164.48
2019-05-15T14:25:18.200Z,102162.59
2019-05-15T14:28:28.186Z,102185.61
2019-05-15T14:31:36.550Z,102172.43
2019-05-15T14:34:43.913Z,102174.72
2019-05-15T14:38:02.575Z,102173.50
2019-05-15T14:41:00.420Z,102174.17
2019-05-15T14:44:17.447Z,102174.63
2019-05-15T14:47:16.039Z,102175.39
2019-05-15T14:50:23.470Z,102172.34
2019-05-15T14:53:41.754Z,102164.48
2019-05-15T14:56:48.695Z,102173.56
2019-05-15T14:59:58.019Z,102167.92
2019-05-15T15:03:14.733Z,102183.34
2019-05-15T15:06:31.273Z,102165.02
2019-05-15T15:09:38.648Z,102173.59
2019-05-15T15:13:04.275Z,102168.54
2019-05-15T15:16:21.523Z,102160.75
2019-05-15T15:19:40.398Z,102169.59
2019-05-15T15:22:59.822Z,102163.19
2019-05-15T15:26:08.231Z,102169.00
2019-05-15T15:29:15.675Z,102177.39
2019-05-15T15:32:22.850Z,102168.78
2019-05-15T15:35:30.357Z,102161.91
2019-05-15T15:38:48.401Z,102180.07
2019-05-15T15:41:57.846Z,102174.41
2019-05-15T15:45:14.571Z,102165.80
2019-05-15T15:48:21.470Z,102178.59
2019-05-15T15:51:28.631Z,102166.02
2019-05-15T15:54:45.754Z,102161.72
2019-05-15T15:58:02.495Z,102152.13
2019-05-15T16:01:25.697Z,102153.86
2019-05-15T16:04:40.413Z,102145.98
2019-05-15T16:08:00.164Z,102143.91
2019-05-15T16:11:19.361Z,102138.12
2019-05-15T16:14:38.696Z,102141.52
2019-05-15T16:18:03.804Z,102136.30
2019-05-15T16:21:22.022Z,102144.30
2019-05-15T16:24:29.437Z,102136.23
2019-05-15T16:27:54.635Z,102145.94
2019-05-15T16:31:18.636Z,102127.28
2019-05-15T16:34:28.369Z,102121.83
2019-05-15T16:37:44.701Z,102126.28
2019-05-15T16:41:09.175Z,102119.79
2019-05-15T16:44:16.346Z,102122.59
2019-05-15T16:47:23.796Z,102117.31
2019-05-15T16:50:42.890Z,102118.09
2019-05-15T16:53:50.151Z,102118.63
2019-05-15T16:57:15.211Z,102115.13
2019-05-15T17:00:23.018Z,102113.31
2019-05-15T17:03:30.540Z,102111.78
2019-05-15T17:06:38.736Z,102110.55
2019-05-15T17:10:03.912Z,102110.34
2019-05-15T17:13:23.025Z,102097.66
2019-05-15T17:16:42.713Z,102103.34
2019-05-15T17:20:01.990Z,102106.09
2019-05-15T17:23:18.883Z,102107.77
2019-05-15T17:26:28.768Z,102106.53
2019-05-15T17:29:49.070Z,102095.95
2019-05-15T17:32:56.567Z,102091.14
2019-05-15T17:36:04.440Z,102091.80
2019-05-15T17:39:12.236Z,102086.22
2019-05-15T17:42:19.436Z,102082.57
2019-05-15T17:45:28.303Z,102083.61
2019-05-15T17:48:35.864Z,102083.31
2019-05-15T17:51:43.225Z,102074.69
2019-05-15T17:55:08.627Z,102076.56
2019-05-15T17:58:28.818Z,102080.17
2019-05-15T18:01:38.110Z,102071.81
2019-05-15T18:04:44.338Z,102073.51
2019-05-15T18:07:51.799Z,102068.84
2019-05-15T18:10:59.428Z,102073.31
2019-05-15T18:14:08.866Z,102072.36
2019-05-15T18:17:26.824Z,102071.86
2019-05-15T18:20:45.539Z,102077.83
2019-05-15T18:24:11.176Z,102073.16
2019-05-15T18:27:18.697Z,102066.52
2019-05-15T18:30:38.973Z,102074.61
2019-05-15T18:33:53.962Z,102076.49
2019-05-15T18:36:57.749Z,102075.89
2019-05-15T18:40:18.949Z,102075.50
2019-05-15T18:43:37.739Z,102071.69
2019-05-15T18:46:45.256Z,102076.84
2019-05-15T18:50:04.284Z,102079.20
2019-05-15T18:53:01.589Z,102077.30
2019-05-15T18:56:09.173Z,102085.52
2019-05-15T18:59:17.712Z,102077.67
2019-05-15T19:02:25.382Z,102083.03
2019-05-15T19:05:44.629Z,102080.51
2019-05-15T19:09:05.277Z,102080.16
2019-05-15T19:12:12.732Z,102084.23
2019-05-15T19:15:20.072Z,102086.95
2019-05-15T19:18:44.928Z,102082.16
2019-05-15T19:21:52.461Z,102088.68
2019-05-15T19:25:17.957Z,102080.22
2019-05-15T19:28:25.378Z,102083.39
2019-05-15T19:31:32.747Z,102084.88
2019-05-15T19:34:40.255Z,102087.55
2019-05-15T19:37:48.895Z,102091.56
2019-05-15T19:41:02.311Z,102101.09
2019-05-15T19:44:05.479Z,102101.67
2019-05-15T19:47:30.842Z,102097.38
2019-05-15T19:50:37.705Z,102090.66
2019-05-15T19:53:44.971Z,102090.30
2019-05-15T19:57:04.426Z,102091.05
2019-05-15T20:00:54.769Z,102093.72
2019-05-15T20:04:03.904Z,102093.95
2019-05-15T20:07:50.002Z,102092.52
2019-05-15T20:11:27.760Z,102091.43
2019-05-15T20:22:43.046Z,102088.69
2019-05-15T20:25:58.136Z,102088.83
2019-05-15T20:29:18.072Z,102085.91
2019-05-15T20:32:41.024Z,102084.67
2019-05-15T20:36:17.862Z,102083.92
2019-05-15T20:39:20.926Z,102080.99
2019-05-15T20:42:48.417Z,102085.20
2019-05-15T20:46:08.424Z,102072.01
2019-05-15T20:49:17.891Z,102081.62
2019-05-15T20:52:23.798Z,102086.80
2019-05-15T20:55:31.168Z,102085.42
2019-05-15T20:58:38.548Z,102088.08
2019-05-15T21:01:48.301Z,102081.30
2019-05-15T21:04:55.025Z,102075.82
2019-05-15T21:08:02.492Z,102077.59
2019-05-15T21:11:11.722Z,102074.69
2019-05-15T21:14:39.823Z,102060.17
2019-05-15T21:17:45.981Z,102067.20
2019-05-15T21:20:58.884Z,102069.84
2019-05-15T21:24:12.941Z,102075.87
2019-05-15T21:27:33.480Z,102070.37
2019-05-15T21:30:48.864Z,102068.73
2019-05-15T21:33:59.666Z,102066.16
2019-05-15T21:37:18.780Z,102076.52
2019-05-15T21:40:50.968Z,102067.58
2019-05-15T21:44:08.699Z,102062.89
2019-05-15T21:47:14.627Z,102063.81
2019-05-15T21:50:34.772Z,102059.00
2019-05-15T21:53:42.167Z,102056.23
2019-05-15T21:56:50.471Z,102052.39
2019-05-15T21:59:57.821Z,102056.55
2019-05-15T22:03:05.918Z,102059.69
2019-05-15T22:06:25.102Z,102051.47
2019-05-15T22:09:50.213Z,102041.69
2019-05-15T22:13:15.632Z,102044.20
2019-05-15T22:16:34.838Z,102047.61
2019-05-15T22:19:54.512Z,102041.73
2019-05-15T22:23:13.791Z,102031.06
2019-05-15T22:26:21.771Z,102030.78
2019-05-15T22:29:28.862Z,102021.33
2019-05-15T22:32:41.196Z,102015.39
2019-05-15T22:35:45.570Z,102004.25
2019-05-15T22:38:52.981Z,101999.08
2019-05-15T22:42:51.671Z,101998.19
2019-05-15T22:46:12.286Z,101987.57
2019-05-15T22:49:31.306Z,101988.33
2019-05-15T22:52:50.472Z,101987.93
2019-05-15T22:56:09.966Z,101985.45
2019-05-15T22:59:34.505Z,101984.65
2019-05-15T23:02:40.781Z,101990.85
2019-05-15T23:05:47.629Z,101995.92
2019-05-15T23:08:55.125Z,101992.03
2019-05-15T23:12:02.462Z,101985.45
2019-05-15T23:15:09.884Z,101981.50
2019-05-15T23:18:17.928Z,101978.30
2019-05-15T23:21:25.496Z,101983.92
2019-05-15T23:24:33.029Z,101984.00
2019-05-15T23:27:40.430Z,101982.39
2019-05-15T23:30:48.538Z,101976.02
2019-05-15T23:33:55.991Z,101971.78
2019-05-15T23:37:03.296Z,101971.73
2019-05-15T23:40:11.130Z,101966.25
2019-05-15T23:43:18.933Z,101965.89
2019-05-15T23:46:25.216Z,101958.44
2019-05-15T23:49:32.486Z,101953.44
2019-05-15T23:52:39.733Z,101946.94
2019-05-15T23:55:47.187Z,101946.49
2019-05-15T23:58:54.533Z,101946.14
